Chugiak, Alaska
Current Conditions -  °F | °C
As of 12:36 AM on Monday 20 Oct 2014 (Local Time) from PABV Reporting Station
Overcast Overcast  
Wind Chill: 31°   Ceiling: 2900
Heat Index: 36°   Visibility: 10mi
Dew Point: 34°   Wind: 6mph
Humidity: 93%   Direction: 210°SSW
Pressure: 29.01"   Gusts: NA
Location:  61.4°N, 149.52°W
Report Text: PABV 200836Z AUTO 21005KT 10SM OVC029 02/01 A2901 RMK AO1
Loading
Personal Weather Stations






























Interactive Weather Map
Tropical Storm Tracking
New forecast layout! Learn more

10-Day Weather Forecast

Advertisements
Track Severe Weather on mobile